Time;durP1;ratioP1;P1;durP2;ratioP2;P2;SDS_P1;SDS_P2;PMS_P1;PMS_P2;Temp;Humidity;BMP_temperature;BMP_pressure;BME280_temperature;BME280_humidity;BME280_pressure;Samples;Min_cycle;Max_cycle;Signal;HPM_P1;HPM_P2
2022/01/31 00:02:12;;;;;;;30.33;6.45;;;4.20;99.90;;;;;;5112826;28;20061;-60
2022/01/31 00:04:38;;;;;;;27.23;6.90;;;4.20;99.90;;;;;;5112875;28;20085;-61
2022/01/31 00:07:05;;;;;;;26.50;6.68;;;4.20;99.90;;;;;;5112678;28;20375;-61
2022/01/31 00:09:30;;;;;;;28.92;6.95;;;4.10;99.90;;;;;;5112677;28;20039;-61
2022/01/31 00:12:07;;;;;;;24.08;5.68;;;4.10;99.90;;;;;;5112320;28;20096;-60
2022/01/31 00:14:42;;;;;;;22.48;7.85;;;4.10;99.90;;;;;;5112235;28;20115;-61
2022/01/31 00:17:09;;;;;;;29.05;5.50;;;4.10;99.90;;;;;;5112700;28;20093;-60
2022/01/31 00:19:38;;;;;;;28.80;5.53;;;4.10;99.90;;;;;;5112300;28;20428;-60
2022/01/31 00:22:05;;;;;;;22.38;5.75;;;4.10;99.90;;;;;;5112436;28;20045;-60
2022/01/31 00:24:30;;;;;;;17.85;4.80;;;4.10;99.90;;;;;;5112424;28;20031;-60
2022/01/31 00:26:56;;;;;;;22.02;5.43;;;4.10;99.90;;;;;;5112686;28;20039;-60
2022/01/31 00:29:22;;;;;;;24.85;4.82;;;4.10;99.90;;;;;;5112062;28;20036;-60
2022/01/31 00:31:47;;;;;;;18.40;4.40;;;4.10;99.90;;;;;;5112547;28;20043;-60
2022/01/31 00:34:13;;;;;;;22.83;5.38;;;4.10;99.90;;;;;;5112662;28;20499;-60
2022/01/31 00:36:39;;;;;;;28.80;5.65;;;4.10;99.90;;;;;;5112470;28;20389;-60
2022/01/31 00:39:05;;;;;;;20.55;6.18;;;4.10;99.90;;;;;;5094170;28;20092;-60
2022/01/31 00:41:31;;;;;;;20.35;5.30;;;4.10;99.90;;;;;;5112786;28;20389;-60
2022/01/31 00:44:16;;;;;;;22.25;5.18;;;4.10;99.90;;;;;;5112268;28;20040;-60
2022/01/31 00:46:48;;;;;;;26.23;5.60;;;4.10;99.90;;;;;;5112302;28;20043;-60
2022/01/31 00:49:35;;;;;;;28.02;5.63;;;4.10;99.90;;;;;;5112224;28;20448;-61
2022/01/31 00:52:01;;;;;;;20.95;5.55;;;4.10;99.90;;;;;;5112253;28;20039;-60
2022/01/31 00:54:28;;;;;;;19.27;5.70;;;4.10;99.90;;;;;;5112608;28;20038;-61
2022/01/31 00:56:53;;;;;;;26.45;6.53;;;4.10;99.90;;;;;;5112228;28;20039;-60
2022/01/31 00:59:19;;;;;;;23.67;6.38;;;4.10;99.90;;;;;;5112167;28;20534;-61
2022/01/31 01:01:46;;;;;;;21.40;6.25;;;4.20;99.90;;;;;;5112198;28;20065;-60
2022/01/31 01:04:11;;;;;;;24.65;6.60;;;4.10;99.90;;;;;;5112211;28;20035;-60
2022/01/31 01:06:37;;;;;;;32.65;7.60;;;4.10;99.90;;;;;;5112376;28;20036;-60
2022/01/31 01:09:04;;;;;;;25.48;6.68;;;4.10;99.90;;;;;;5112084;28;20047;-60
2022/01/31 01:11:30;;;;;;;24.77;6.63;;;4.10;99.90;;;;;;5111955;28;20088;-60
2022/01/31 01:13:55;;;;;;;23.92;6.78;;;4.10;99.90;;;;;;5111912;28;20032;-61
2022/01/31 01:16:21;;;;;;;24.20;8.00;;;4.00;99.90;;;;;;5111847;28;20023;-60
2022/01/31 01:18:47;;;;;;;25.73;8.52;;;4.00;99.90;;;;;;5093808;28;20470;-60
2022/01/31 01:21:12;;;;;;;21.40;8.05;;;4.00;99.90;;;;;;5111747;28;20044;-60
2022/01/31 01:23:38;;;;;;;20.80;7.15;;;4.10;99.90;;;;;;5093433;28;20089;-61
2022/01/31 01:26:04;;;;;;;30.77;8.38;;;4.10;99.90;;;;;;5113639;28;20043;-60
2022/01/31 01:28:30;;;;;;;24.17;8.05;;;4.00;99.90;;;;;;5116040;28;20040;-60
2022/01/31 01:30:56;;;;;;;28.35;8.77;;;4.00;99.90;;;;;;5116150;28;20048;-61
2022/01/31 01:33:24;;;;;;;21.83;9.73;;;4.00;99.90;;;;;;5116350;28;20047;-60
2022/01/31 01:35:53;;;;;;;21.48;9.70;;;4.00;99.90;;;;;;5116323;28;20047;-60
2022/01/31 01:38:19;;;;;;;28.70;9.57;;;4.00;99.90;;;;;;5116046;28;20552;-60
2022/01/31 01:40:47;;;;;;;27.30;9.90;;;3.90;99.90;;;;;;5116090;28;20135;-60
2022/01/31 01:43:14;;;;;;;24.50;9.80;;;3.90;99.90;;;;;;5116016;28;20039;-60
2022/01/31 01:45:41;;;;;;;27.63;10.77;;;3.90;99.90;;;;;;5115840;28;20040;-61
2022/01/31 01:48:08;;;;;;;30.40;12.55;;;3.90;99.90;;;;;;5116092;28;20036;-60
2022/01/31 01:50:39;;;;;;;26.63;10.98;;;3.90;99.90;;;;;;5115759;28;20114;-61
2022/01/31 01:53:05;;;;;;;25.85;11.32;;;3.80;99.90;;;;;;5115773;28;20043;-61
2022/01/31 01:55:31;;;;;;;26.23;11.13;;;3.80;99.90;;;;;;5115504;28;20096;-61
2022/01/31 01:57:57;;;;;;;21.50;11.32;;;3.80;99.90;;;;;;5115198;28;20103;-61
2022/01/31 02:00:26;;;;;;;23.92;12.80;;;3.70;99.90;;;;;;5114618;28;20039;-62
2022/01/31 02:02:53;;;;;;;23.02;11.75;;;3.70;99.90;;;;;;5114771;28;20609;-61
2022/01/31 02:05:19;;;;;;;20.30;11.32;;;3.60;99.90;;;;;;5096407;28;20040;-61
2022/01/31 02:07:45;;;;;;;22.73;12.32;;;3.60;99.90;;;;;;5114825;28;20033;-62
2022/01/31 02:10:11;;;;;;;18.88;11.20;;;3.60;99.90;;;;;;5114513;28;20474;-61
2022/01/31 02:12:41;;;;;;;24.58;12.63;;;3.50;99.90;;;;;;5114545;28;20040;-60
2022/01/31 02:15:09;;;;;;;19.67;12.13;;;3.50;99.90;;;;;;5114518;28;20165;-61
2022/01/31 02:17:35;;;;;;;19.73;11.75;;;3.50;99.90;;;;;;5114549;28;20072;-62
2022/01/31 02:20:02;;;;;;;19.92;11.95;;;3.40;99.90;;;;;;5114261;28;20482;-62
2022/01/31 02:22:28;;;;;;;18.50;10.90;;;3.40;99.90;;;;;;5114509;28;20035;-61
2022/01/31 02:24:54;;;;;;;19.27;10.75;;;3.30;99.90;;;;;;5114508;28;20039;-60
2022/01/31 02:27:28;;;;;;;18.38;9.63;;;3.30;99.90;;;;;;5114687;28;20382;-61
2022/01/31 02:29:54;;;;;;;17.52;9.23;;;3.30;99.90;;;;;;5096017;28;20047;-62
2022/01/31 02:32:22;;;;;;;13.05;9.25;;;3.30;99.90;;;;;;5114117;28;20050;-62
2022/01/31 02:34:49;;;;;;;13.52;10.00;;;3.20;99.90;;;;;;5114433;28;20031;-61
2022/01/31 02:37:15;;;;;;;15.18;10.48;;;3.20;99.90;;;;;;5113418;28;20544;-62
2022/01/31 02:39:40;;;;;;;16.23;10.90;;;3.10;99.90;;;;;;5114066;28;20122;-61
2022/01/31 02:42:06;;;;;;;17.90;10.63;;;3.20;99.90;;;;;;5095384;28;20047;-61
2022/01/31 02:44:32;;;;;;;15.50;10.10;;;3.10;99.90;;;;;;5113992;28;20079;-62
2022/01/31 02:46:58;;;;;;;16.67;11.15;;;3.20;99.90;;;;;;5095556;28;20544;-61
2022/01/31 02:49:29;;;;;;;17.27;11.88;;;3.20;99.90;;;;;;5113792;28;20119;-62
2022/01/31 02:51:59;;;;;;;16.92;10.45;;;3.20;99.90;;;;;;5113777;28;20073;-61
2022/01/31 02:54:27;;;;;;;18.63;11.23;;;3.20;99.90;;;;;;5113701;28;20043;-62
2022/01/31 02:56:53;;;;;;;16.10;12.15;;;3.20;99.90;;;;;;5113617;28;20039;-62
2022/01/31 02:59:19;;;;;;;16.90;11.05;;;3.30;99.90;;;;;;5113657;28;20118;-62
2022/01/31 03:01:45;;;;;;;21.00;11.82;;;3.30;99.90;;;;;;5113718;28;20031;-61
2022/01/31 03:04:12;;;;;;;16.17;11.93;;;3.30;99.90;;;;;;5113631;28;20032;-62
2022/01/31 03:06:39;;;;;;;22.25;11.48;;;3.30;99.90;;;;;;5113608;28;20093;-62
2022/01/31 03:09:05;;;;;;;23.35;12.05;;;3.40;99.90;;;;;;5113355;28;20054;-62
2022/01/31 03:11:31;;;;;;;18.35;11.48;;;3.50;99.90;;;;;;5113452;28;20035;-62
2022/01/31 03:13:57;;;;;;;19.27;11.25;;;3.50;99.90;;;;;;5113551;28;20100;-62
2022/01/31 03:16:23;;;;;;;17.00;11.00;;;3.50;99.90;;;;;;5113162;28;20035;-61
2022/01/31 03:18:48;;;;;;;17.10;10.10;;;3.60;99.90;;;;;;5113254;28;20118;-62
2022/01/31 03:21:15;;;;;;;14.35;8.43;;;3.60;99.90;;;;;;5113192;28;20039;-63
2022/01/31 03:23:41;;;;;;;21.05;9.82;;;3.70;99.90;;;;;;5113497;28;20114;-62
2022/01/31 03:26:06;;;;;;;13.35;8.60;;;3.80;99.90;;;;;;5113244;28;20035;-63
2022/01/31 03:28:32;;;;;;;12.52;8.50;;;3.80;99.90;;;;;;5113470;28;20036;-63
2022/01/31 03:30:58;;;;;;;16.30;8.32;;;3.90;99.90;;;;;;5113262;28;20043;-61
2022/01/31 03:33:23;;;;;;;19.02;8.60;;;4.00;99.90;;;;;;5112951;28;20053;-61
2022/01/31 03:35:49;;;;;;;22.67;8.10;;;4.00;99.90;;;;;;5113000;28;20035;-62
2022/01/31 03:38:15;;;;;;;26.63;7.60;;;4.10;99.90;;;;;;5112883;28;20044;-61
2022/01/31 03:40:41;;;;;;;22.08;7.35;;;4.20;99.90;;;;;;5113238;28;20043;-62
2022/01/31 03:43:07;;;;;;;21.23;7.07;;;4.20;99.90;;;;;;5112894;28;20035;-62
2022/01/31 03:45:34;;;;;;;26.10;5.47;;;4.40;99.90;;;;;;5112790;28;20485;-62
2022/01/31 03:48:02;;;;;;;34.63;5.15;;;4.50;99.90;;;;;;5113151;28;20044;-61
2022/01/31 03:50:28;;;;;;;34.65;4.78;;;4.60;99.90;;;;;;5111857;28;20081;-61
2022/01/31 03:52:53;;;;;;;34.95;5.90;;;4.70;99.90;;;;;;5112945;28;20074;-61
2022/01/31 03:55:20;;;;;;;36.17;5.57;;;4.90;99.90;;;;;;5113223;28;20047;-62
2022/01/31 03:57:46;;;;;;;29.60;5.20;;;5.00;99.90;;;;;;5113204;28;20043;-60
2022/01/31 04:00:14;;;;;;;34.13;5.35;;;5.00;99.90;;;;;;5112734;28;20049;-61
2022/01/31 04:02:40;;;;;;;29.55;5.20;;;5.10;99.90;;;;;;5112794;28;20050;-62
2022/01/31 04:05:06;;;;;;;39.53;5.55;;;5.10;99.90;;;;;;5112929;28;20031;-61
2022/01/31 04:07:32;;;;;;;22.48;3.13;;;5.10;99.90;;;;;;5112936;28;20044;-62
2022/01/31 04:09:58;;;;;;;16.90;3.13;;;5.20;99.90;;;;;;5112919;28;20040;-60
2022/01/31 04:12:24;;;;;;;14.63;2.20;;;5.10;99.90;;;;;;5094729;28;20051;-63
2022/01/31 04:14:49;;;;;;;12.35;2.35;;;5.10;99.90;;;;;;5112665;28;20079;-61
2022/01/31 04:17:19;;;;;;;12.90;2.20;;;5.10;99.90;;;;;;5112768;28;20039;-61
2022/01/31 04:19:45;;;;;;;17.77;3.05;;;5.00;99.90;;;;;;5112614;28;20119;-62
2022/01/31 04:22:14;;;;;;;16.90;2.42;;;5.00;99.90;;;;;;5112435;28;20032;-61
2022/01/31 04:24:41;;;;;;;25.92;2.92;;;5.10;99.90;;;;;;5112891;28;20043;-61
2022/01/31 04:27:08;;;;;;;20.08;3.38;;;5.20;99.90;;;;;;5112546;28;20040;-61
2022/01/31 04:29:39;;;;;;;18.00;3.03;;;5.20;99.90;;;;;;5112567;28;20044;-61
2022/01/31 04:32:05;;;;;;;18.58;2.55;;;5.20;99.90;;;;;;5112566;28;20115;-61
2022/01/31 04:34:31;;;;;;;14.38;2.40;;;5.10;99.90;;;;;;5094110;28;20043;-62
2022/01/31 04:36:58;;;;;;;11.45;2.70;;;5.20;99.90;;;;;;5112766;28;20042;-60
2022/01/31 04:39:26;;;;;;;15.73;2.63;;;5.10;99.90;;;;;;5112536;28;20080;-61
2022/01/31 04:41:52;;;;;;;19.13;3.22;;;5.10;99.90;;;;;;5112565;28;20064;-61
2022/01/31 04:44:18;;;;;;;19.90;2.53;;;5.10;99.90;;;;;;5112268;28;20052;-61
2022/01/31 04:46:49;;;;;;;15.75;2.97;;;5.00;99.90;;;;;;5112591;28;20482;-60
2022/01/31 04:49:19;;;;;;;13.55;2.50;;;4.90;99.90;;;;;;5112698;28;20047;-61
2022/01/31 04:51:44;;;;;;;22.40;2.90;;;5.00;99.90;;;;;;5112366;28;20043;-61
2022/01/31 04:54:10;;;;;;;12.90;2.63;;;5.00;99.90;;;;;;5093821;28;20371;-61
2022/01/31 04:56:38;;;;;;;21.10;3.35;;;5.00;99.90;;;;;;5112122;28;20549;-61
2022/01/31 04:59:04;;;;;;;24.23;3.42;;;5.00;99.90;;;;;;5112175;28;20397;-61
2022/01/31 05:01:30;;;;;;;26.42;2.53;;;5.00;99.90;;;;;;5095940;28;20053;-61
2022/01/31 05:03:56;;;;;;;19.23;3.75;;;5.00;99.90;;;;;;5115958;28;20119;-60
2022/01/31 05:06:28;;;;;;;25.35;3.60;;;5.10;99.90;;;;;;5116211;28;20123;-61
2022/01/31 05:08:54;;;;;;;23.13;3.40;;;5.00;99.90;;;;;;5116150;28;20044;-60
2022/01/31 05:11:19;;;;;;;20.70;3.83;;;5.10;99.90;;;;;;5097808;28;20120;-61
2022/01/31 05:13:46;;;;;;;17.75;3.00;;;5.00;99.90;;;;;;5097573;28;20043;-61
2022/01/31 05:16:12;;;;;;;13.50;2.40;;;5.00;99.90;;;;;;5115669;28;20114;-60
2022/01/31 05:18:38;;;;;;;14.85;2.90;;;5.00;99.90;;;;;;5115820;28;20122;-60
2022/01/31 05:21:05;;;;;;;15.55;2.38;;;5.00;99.90;;;;;;5116275;28;20051;-60
2022/01/31 05:23:32;;;;;;;9.15;1.98;;;5.00;99.90;;;;;;5115845;28;20039;-60
2022/01/31 05:25:58;;;;;;;15.65;2.10;;;5.00;99.90;;;;;;5115741;28;20031;-61
2022/01/31 05:28:24;;;;;;;14.60;1.77;;;4.90;99.90;;;;;;5115586;28;20030;-61
2022/01/31 05:30:49;;;;;;;10.73;1.55;;;5.00;99.90;;;;;;5097572;28;20047;-62
2022/01/31 05:33:15;;;;;;;6.00;1.58;;;5.00;99.90;;;;;;5115709;28;20046;-61
2022/01/31 05:35:41;;;;;;;12.05;2.40;;;5.00;99.90;;;;;;5115431;28;20031;-61
2022/01/31 05:38:06;;;;;;;8.90;1.83;;;4.90;99.90;;;;;;5097009;28;20123;-61
2022/01/31 05:40:32;;;;;;;16.75;1.70;;;4.90;99.90;;;;;;5114942;28;20126;-61
2022/01/31 05:42:58;;;;;;;11.50;2.45;;;4.80;99.90;;;;;;5115209;28;20080;-61
2022/01/31 05:45:24;;;;;;;9.55;2.00;;;4.80;99.90;;;;;;5115344;28;20094;-61
2022/01/31 05:47:49;;;;;;;16.52;1.95;;;4.80;99.90;;;;;;5115549;28;20039;-61
2022/01/31 05:50:15;;;;;;;16.67;2.15;;;4.80;99.90;;;;;;5115028;28;20052;-61
2022/01/31 05:52:41;;;;;;;8.60;1.98;;;4.80;99.90;;;;;;5115068;28;20036;-61
2022/01/31 05:55:07;;;;;;;13.07;2.28;;;4.80;99.90;;;;;;5115082;28;20100;-61
2022/01/31 05:57:33;;;;;;;13.13;1.95;;;4.80;99.90;;;;;;5114956;28;20038;-61
2022/01/31 05:59:59;;;;;;;10.50;1.65;;;4.80;99.90;;;;;;5096502;28;20047;-61
2022/01/31 06:02:25;;;;;;;7.90;2.47;;;4.80;99.90;;;;;;5114872;28;20050;-61
2022/01/31 06:04:50;;;;;;;10.45;1.65;;;4.80;99.90;;;;;;5114795;28;20035;-61
2022/01/31 06:07:16;;;;;;;13.02;2.30;;;4.80;99.90;;;;;;5114784;28;20035;-61
2022/01/31 06:09:42;;;;;;;13.40;2.28;;;4.80;99.90;;;;;;5114699;28;20091;-61
2022/01/31 06:12:10;;;;;;;6.88;1.60;;;4.80;99.90;;;;;;5094912;28;20177;-61
2022/01/31 06:14:36;;;;;;;17.77;2.60;;;4.80;99.90;;;;;;5114592;28;20385;-61
2022/01/31 06:17:02;;;;;;;13.32;2.00;;;4.80;99.90;;;;;;5114723;28;20047;-61
2022/01/31 06:19:27;;;;;;;17.10;3.08;;;4.80;99.90;;;;;;5114638;28;20043;-61
2022/01/31 06:21:53;;;;;;;11.80;2.00;;;4.90;99.90;;;;;;5114724;28;20089;-62
2022/01/31 06:24:20;;;;;;;12.98;1.98;;;4.90;99.90;;;;;;5114450;28;20046;-62
2022/01/31 06:26:46;;;;;;;10.65;2.00;;;4.90;99.90;;;;;;5114330;28;20382;-61
2022/01/31 06:29:11;;;;;;;21.10;2.88;;;4.80;99.90;;;;;;5114314;28;20043;-61
2022/01/31 06:31:38;;;;;;;15.55;2.42;;;4.90;99.90;;;;;;5114088;28;20035;-61
2022/01/31 06:34:04;;;;;;;16.27;2.08;;;4.90;99.90;;;;;;5114328;28;20131;-61
2022/01/31 06:36:30;;;;;;;16.40;2.70;;;5.00;99.90;;;;;;5114574;28;20127;-61
2022/01/31 06:38:56;;;;;;;20.65;3.88;;;4.90;99.90;;;;;;5096036;28;20461;-61
2022/01/31 06:41:23;;;;;;;16.08;1.90;;;5.00;99.90;;;;;;5114223;28;20040;-62
2022/01/31 06:43:51;;;;;;;14.25;2.10;;;5.00;99.90;;;;;;5114158;28;20100;-61
2022/01/31 06:46:18;;;;;;;15.15;2.13;;;5.00;99.90;;;;;;5114381;28;20519;-61
2022/01/31 06:48:44;;;;;;;10.25;1.65;;;5.00;99.90;;;;;;5114374;28;20142;-61
2022/01/31 06:51:09;;;;;;;12.02;2.30;;;5.00;99.90;;;;;;5096182;28;20489;-61
2022/01/31 06:53:36;;;;;;;12.18;2.00;;;5.00;99.90;;;;;;5114205;28;20060;-61
2022/01/31 06:56:02;;;;;;;13.02;1.92;;;5.00;99.90;;;;;;5113712;28;20090;-61
2022/01/31 06:58:28;;;;;;;14.70;2.00;;;5.10;99.90;;;;;;5114158;28;20035;-60
2022/01/31 07:00:54;;;;;;;12.23;1.80;;;5.00;99.90;;;;;;5113606;28;20381;-62
2022/01/31 07:03:21;;;;;;;8.70;1.92;;;5.00;99.90;;;;;;5113854;28;20054;-61
2022/01/31 07:05:47;;;;;;;12.52;2.55;;;5.10;99.90;;;;;;5113918;28;20085;-61
2022/01/31 07:08:14;;;;;;;11.05;1.55;;;5.10;99.90;;;;;;5113634;28;20481;-60
2022/01/31 07:10:40;;;;;;;10.77;2.25;;;5.00;99.90;;;;;;5113246;28;20047;-61
2022/01/31 07:13:24;;;;;;;14.60;2.00;;;5.00;99.90;;;;;;5114307;28;20028;-61
2022/01/31 07:15:49;;;;;;;18.02;1.70;;;5.10;99.90;;;;;;5113486;28;20047;-61
2022/01/31 07:18:15;;;;;;;11.20;2.28;;;5.10;99.90;;;;;;5113493;28;20028;-61
2022/01/31 07:20:43;;;;;;;8.95;1.50;;;5.10;99.90;;;;;;5113109;28;20455;-61
2022/01/31 07:23:16;;;;;;;8.70;2.20;;;5.10;99.90;;;;;;5094933;28;20075;-61
2022/01/31 07:25:42;;;;;;;13.13;2.33;;;5.10;99.90;;;;;;5113216;28;20516;-61
2022/01/31 07:28:10;;;;;;;12.75;2.28;;;5.10;99.90;;;;;;5113252;28;20036;-61
2022/01/31 07:30:37;;;;;;;8.98;1.98;;;5.00;99.90;;;;;;5094539;28;20092;-61
2022/01/31 07:33:03;;;;;;;17.08;2.30;;;5.10;99.90;;;;;;5113042;28;20039;-61
2022/01/31 07:35:29;;;;;;;12.43;2.30;;;5.10;99.90;;;;;;5094815;28;20035;-61
2022/01/31 07:37:55;;;;;;;18.33;2.33;;;5.10;99.90;;;;;;5112708;28;20038;-62
2022/01/31 07:40:20;;;;;;;19.02;2.25;;;5.10;99.90;;;;;;5112996;28;20043;-62
2022/01/31 07:42:46;;;;;;;7.18;1.80;;;5.20;99.90;;;;;;5094602;28;20046;-61
2022/01/31 07:45:12;;;;;;;12.68;1.73;;;5.20;99.90;;;;;;5112591;28;20047;-61
2022/01/31 07:47:39;;;;;;;8.50;1.70;;;5.20;99.90;;;;;;5094452;28;20126;-62
2022/01/31 07:50:06;;;;;;;16.48;1.80;;;5.20;99.90;;;;;;5112834;28;20080;-53
2022/01/31 07:52:32;;;;;;;15.90;1.98;;;5.20;99.90;;;;;;5112640;28;20052;-51
2022/01/31 07:54:58;;;;;;;10.85;1.70;;;5.20;99.90;;;;;;5112682;28;20486;-51
2022/01/31 07:57:25;;;;;;;9.00;1.70;;;5.20;99.90;;;;;;5112777;28;20036;-53
2022/01/31 07:59:51;;;;;;;6.40;1.83;;;5.10;99.90;;;;;;5094288;28;20481;-48
2022/01/31 08:02:17;;;;;;;8.27;1.85;;;5.20;99.90;;;;;;5112676;28;20039;-54
2022/01/31 08:04:43;;;;;;;11.23;2.13;;;5.20;99.90;;;;;;5094392;28;20393;-52
2022/01/31 08:07:09;;;;;;;8.52;2.35;;;5.10;99.90;;;;;;5112736;28;20079;-53
2022/01/31 08:09:34;;;;;;;15.45;2.13;;;5.10;99.90;;;;;;5112939;28;20035;-51
2022/01/31 08:12:00;;;;;;;11.68;2.53;;;5.10;99.90;;;;;;5112617;28;20393;-53
2022/01/31 08:14:27;;;;;;;17.38;2.00;;;5.10;99.90;;;;;;5112513;28;20027;-51
2022/01/31 08:16:52;;;;;;;9.68;1.90;;;5.30;99.90;;;;;;5112552;28;20071;-52
2022/01/31 08:19:18;;;;;;;10.88;1.88;;;5.30;99.90;;;;;;5112461;28;20071;-51
2022/01/31 08:21:44;;;;;;;11.27;2.78;;;5.40;99.90;;;;;;5093814;28;20091;-53
2022/01/31 08:24:09;;;;;;;10.50;1.88;;;5.40;99.90;;;;;;5112190;28;20044;-52
2022/01/31 08:26:35;;;;;;;10.07;1.55;;;5.50;99.90;;;;;;5112294;28;20112;-53
2022/01/31 08:29:16;;;;;;;9.57;1.70;;;5.60;99.90;;;;;;5112166;28;20122;-51
2022/01/31 08:31:42;;;;;;;8.15;1.67;;;5.60;99.90;;;;;;5112132;28;20067;-52
2022/01/31 08:36:42;;;;;;;7.20;1.67;;;5.70;99.90;;;;;;5103484;28;20043;-53
2022/01/31 08:39:19;;;;;;;10.98;1.40;;;5.80;99.90;;;;;;5100717;28;20432;-52
2022/01/31 08:41:49;;;;;;;6.05;1.52;;;5.70;99.90;;;;;;5097546;28;20036;-52
2022/01/31 08:44:17;;;;;;;8.75;2.08;;;5.70;99.90;;;;;;5088259;28;20469;-54
2022/01/31 08:46:45;;;;;;;16.05;2.92;;;5.80;99.90;;;;;;5112000;28;20043;-53
2022/01/31 08:49:13;;;;;;;9.57;1.80;;;5.90;99.90;;;;;;5111411;28;20034;-51
2022/01/31 08:51:39;;;;;;;10.57;2.15;;;5.90;99.90;;;;;;5112040;28;20039;-53
2022/01/31 08:54:06;;;;;;;9.88;2.28;;;6.00;99.90;;;;;;5112098;28;20115;-51
2022/01/31 08:56:38;;;;;;;11.35;2.03;;;6.10;99.90;;;;;;5112036;28;20059;-51
2022/01/31 08:59:05;;;;;;;11.73;1.90;;;6.00;99.90;;;;;;5111805;28;20082;-51
2022/01/31 09:01:32;;;;;;;13.77;2.30;;;6.00;99.90;;;;;;5112167;28;20063;-49
2022/01/31 09:04:02;;;;;;;12.90;2.58;;;5.90;99.90;;;;;;5112215;28;20398;-50
2022/01/31 09:06:29;;;;;;;15.70;2.90;;;5.90;99.90;;;;;;5093459;28;20043;-51
2022/01/31 09:08:57;;;;;;;12.73;2.17;;;6.10;99.90;;;;;;5111888;28;20500;-51
2022/01/31 09:11:24;;;;;;;17.27;2.42;;;6.30;99.90;;;;;;5111905;28;20400;-53
2022/01/31 09:13:50;;;;;;;11.18;2.03;;;6.50;99.90;;;;;;5111831;28;20047;-51
2022/01/31 09:16:16;;;;;;;11.43;2.58;;;6.70;99.90;;;;;;5111996;28;20382;-52
2022/01/31 09:18:42;;;;;;;14.13;2.03;;;6.70;99.90;;;;;;5111986;28;20040;-52
2022/01/31 09:21:08;;;;;;;11.15;2.30;;;6.80;99.90;;;;;;5111709;28;20135;-52
2022/01/31 09:23:34;;;;;;;12.45;1.88;;;6.70;99.90;;;;;;5111670;28;20505;-52
2022/01/31 09:26:00;;;;;;;15.55;1.95;;;6.70;99.90;;;;;;5111653;28;20074;-53
2022/01/31 09:28:27;;;;;;;10.07;1.55;;;6.70;99.90;;;;;;5076573;28;20047;-53
2022/01/31 09:30:54;;;;;;;12.15;2.30;;;6.70;99.90;;;;;;5111853;28;20044;-53
2022/01/31 09:33:20;;;;;;;17.70;1.90;;;6.70;99.90;;;;;;5111872;28;20402;-49
2022/01/31 09:35:46;;;;;;;9.10;1.52;;;6.60;99.90;;;;;;5111744;28;20040;-52
2022/01/31 09:38:17;;;;;;;8.15;1.70;;;6.60;99.90;;;;;;5093613;28;20040;-51
2022/01/31 09:40:43;;;;;;;8.55;1.40;;;6.60;99.90;;;;;;5093322;28;20043;-48
2022/01/31 09:45:57;;;;;;;8.23;1.23;;;6.90;99.90;;;;;;5111400;28;20048;-49
2022/01/31 09:51:15;;;;;;;9.45;1.52;;;7.30;99.90;;;;;;5115248;28;20051;-48
2022/01/31 09:54:03;;;;;;;9.93;1.92;;;7.40;99.90;;;;;;5115028;28;20046;-50
2022/01/31 09:56:37;;;;;;;8.63;1.33;;;7.60;99.90;;;;;;5114959;28;20077;-51
2022/01/31 09:59:04;;;;;;;8.77;2.00;;;7.70;99.90;;;;;;5115121;28;20040;-49
2022/01/31 10:01:35;;;;;;;12.38;1.60;;;7.80;99.90;;;;;;5114808;28;20404;-51
2022/01/31 10:04:04;;;;;;;14.68;2.08;;;7.90;99.90;;;;;;5115529;28;20040;-49
2022/01/31 10:06:41;;;;;;;13.65;2.28;;;7.90;99.90;;;;;;5096802;28;20397;-50
2022/01/31 10:09:13;;;;;;;12.75;2.75;;;8.00;99.90;;;;;;5114820;28;20047;-53
2022/01/31 10:11:56;;;;;;;10.00;1.98;;;8.00;99.90;;;;;;5114674;28;20538;-53
2022/01/31 10:17:10;;;;;;;11.98;2.00;;;8.00;99.90;;;;;;5114624;28;20051;-53
2022/01/31 10:19:44;;;;;;;14.63;2.88;;;8.10;99.90;;;;;;5114459;28;20031;-50
2022/01/31 10:22:13;;;;;;;11.90;2.17;;;8.20;99.90;;;;;;5114640;28;20039;-52
2022/01/31 10:24:41;;;;;;;11.40;2.25;;;8.20;99.90;;;;;;5096131;28;20089;-50
2022/01/31 10:27:22;;;;;;;9.43;2.08;;;8.30;99.90;;;;;;5115189;28;20388;-51
2022/01/31 10:29:51;;;;;;;13.02;2.58;;;8.20;99.90;;;;;;5096318;28;20111;-52
2022/01/31 10:32:37;;;;;;;14.43;2.63;;;8.30;99.90;;;;;;5114834;28;20040;-51
2022/01/31 10:35:07;;;;;;;13.43;2.38;;;8.10;99.90;;;;;;5114012;28;20046;-50
2022/01/31 10:37:35;;;;;;;16.17;2.63;;;8.00;99.90;;;;;;5114421;28;20039;-53
2022/01/31 10:45:49;;;;;;;9.25;1.42;;;7.90;99.90;;;;;;5113984;28;20442;-51
2022/01/31 10:54:05;;;;;;;11.73;1.85;;;8.20;99.90;;;;;;5114225;28;20140;-49
2022/01/31 10:57:12;;;;;;;13.88;2.05;;;8.20;99.90;;;;;;5114221;28;20373;-51
2022/01/31 10:59:41;;;;;;;10.05;2.13;;;8.40;99.90;;;;;;5030484;28;20061;-50
2022/01/31 11:02:23;;;;;;;15.23;3.00;;;8.50;99.90;;;;;;5031078;28;20111;-52
2022/01/31 11:04:50;;;;;;;14.63;2.80;;;8.60;99.90;;;;;;5014495;28;20088;-49
2022/01/31 11:07:18;;;;;;;10.27;2.67;;;8.80;99.90;;;;;;5031015;28;20037;-50
2022/01/31 11:09:46;;;;;;;15.43;2.15;;;8.80;99.90;;;;;;5030982;28;20092;-52
2022/01/31 11:12:13;;;;;;;16.90;2.92;;;9.00;99.90;;;;;;5030845;28;20045;-51
2022/01/31 11:14:42;;;;;;;15.93;3.10;;;9.00;99.90;;;;;;5030716;28;20470;-51
2022/01/31 11:17:11;;;;;;;14.57;2.22;;;8.80;99.90;;;;;;5014208;28;20054;-51
2022/01/31 11:19:41;;;;;;;17.05;3.75;;;8.90;99.90;;;;;;5030708;28;20056;-51
2022/01/31 11:22:09;;;;;;;20.90;3.60;;;9.20;99.90;;;;;;5030546;28;20053;-51
2022/01/31 11:24:41;;;;;;;14.00;2.63;;;9.20;99.90;;;;;;5030701;28;20037;-51
2022/01/31 11:27:12;;;;;;;16.85;2.83;;;9.30;99.90;;;;;;5030557;28;20271;-51
2022/01/31 11:29:42;;;;;;;16.35;2.92;;;9.20;99.90;;;;;;5030715;28;20447;-52
2022/01/31 11:32:08;;;;;;;13.32;2.70;;;9.40;99.90;;;;;;5030423;28;20553;-52
2022/01/31 11:34:39;;;;;;;20.38;2.97;;;9.40;99.90;;;;;;5055117;28;20090;-51
2022/01/31 11:37:07;;;;;;;18.73;3.47;;;9.60;99.90;;;;;;5113143;28;20478;-51
2022/01/31 11:39:33;;;;;;;17.65;2.72;;;9.50;99.90;;;;;;5112931;28;20118;-49
2022/01/31 11:42:02;;;;;;;18.55;3.08;;;9.40;99.90;;;;;;5113020;28;20036;-52
2022/01/31 11:44:52;;;;;;;24.33;4.53;;;9.20;99.90;;;;;;5113251;28;20406;-52
2022/01/31 11:47:27;;;;;;;17.15;2.90;;;9.10;99.90;;;;;;5113087;28;20090;-51
2022/01/31 11:49:55;;;;;;;20.70;3.70;;;9.20;99.90;;;;;;5112741;28;20546;-53
2022/01/31 11:52:22;;;;;;;24.48;3.50;;;9.10;99.90;;;;;;5112847;28;20039;-52
2022/01/31 11:55:00;;;;;;;14.35;3.10;;;9.20;99.90;;;;;;5112854;28;20032;-53
2022/01/31 11:57:29;;;;;;;16.85;3.75;;;9.30;99.90;;;;;;5113135;28;20614;-50
2022/01/31 11:59:57;;;;;;;23.25;3.35;;;9.20;99.90;;;;;;5112736;28;20454;-52
2022/01/31 12:02:25;;;;;;;16.38;3.78;;;9.00;99.90;;;;;;5094123;28;20455;-52
2022/01/31 12:04:52;;;;;;;17.98;3.05;;;8.80;99.90;;;;;;5112671;28;20073;-49
2022/01/31 12:07:39;;;;;;;22.15;3.75;;;8.70;99.90;;;;;;5112711;28;20490;-50
2022/01/31 12:10:17;;;;;;;24.75;4.60;;;8.80;99.90;;;;;;5111752;28;20051;-49
2022/01/31 12:18:36;;;;;;;22.88;3.20;;;8.80;99.90;;;;;;5009926;28;20480;-50
2022/01/31 12:23:59;;;;;;;16.73;3.67;;;8.90;99.90;;;;;;5009932;28;20050;-52
2022/01/31 12:26:33;;;;;;;17.92;3.08;;;8.80;99.90;;;;;;5009845;28;20053;-53
2022/01/31 12:29:15;;;;;;;16.48;3.42;;;8.80;99.90;;;;;;5009974;28;20038;-52
2022/01/31 12:31:47;;;;;;;20.00;4.32;;;8.80;99.90;;;;;;5009835;28;20488;-51
2022/01/31 12:34:20;;;;;;;20.02;3.55;;;8.80;99.90;;;;;;5010025;28;20054;-51
2022/01/31 12:36:50;;;;;;;19.63;2.80;;;8.80;99.90;;;;;;4993218;28;20081;-52
2022/01/31 12:39:39;;;;;;;16.60;2.45;;;8.80;99.90;;;;;;5009830;28;20050;-52
2022/01/31 12:43:13;;;;;;;19.13;3.08;;;8.70;99.90;;;;;;5009617;28;20041;-51
2022/01/31 12:45:27;;;;;;;20.38;3.55;;;8.70;99.90;;;;;;5013702;28;20167;-50
2022/01/31 12:48:20;;;;;;;16.10;3.40;;;8.60;99.90;;;;;;5112113;28;20079;-52
2022/01/31 12:50:48;;;;;;;27.15;3.97;;;8.60;99.90;;;;;;5103167;28;20047;-51
2022/01/31 12:53:23;;;;;;;14.15;3.15;;;8.60;99.90;;;;;;5112041;28;20389;-48
2022/01/31 12:56:03;;;;;;;18.63;3.13;;;8.60;99.90;;;;;;5112071;28;20126;-52
2022/01/31 12:58:30;;;;;;;17.63;2.72;;;8.60;99.90;;;;;;5112009;28;20046;-50
2022/01/31 13:00:56;;;;;;;23.33;3.00;;;8.60;99.90;;;;;;5111883;28;20036;-51
2022/01/31 13:03:36;;;;;;;17.42;2.80;;;8.60;99.90;;;;;;5112162;28;20447;-52
2022/01/31 13:06:01;;;;;;;21.58;3.42;;;8.50;99.90;;;;;;5112165;28;20078;-50
2022/01/31 13:08:27;;;;;;;21.60;3.22;;;8.40;99.90;;;;;;5111963;28;20112;-50
2022/01/31 13:10:55;;;;;;;18.38;2.92;;;8.30;99.90;;;;;;5111936;28;20043;-52
2022/01/31 13:13:36;;;;;;;21.35;4.25;;;8.20;99.90;;;;;;5111786;28;20062;-51
2022/01/31 13:16:05;;;;;;;20.73;3.92;;;8.20;99.90;;;;;;5111484;28;20043;-53
2022/01/31 13:18:32;;;;;;;27.80;4.03;;;8.20;99.90;;;;;;5104176;28;20478;-47
2022/01/31 13:20:59;;;;;;;22.98;3.45;;;8.20;99.90;;;;;;5111783;28;20039;-50
2022/01/31 13:23:26;;;;;;;16.77;3.33;;;8.10;99.90;;;;;;5115744;28;20424;-50
2022/01/31 13:26:03;;;;;;;18.60;4.22;;;8.10;99.90;;;;;;5115580;28;20036;-51